Time;durP1;ratioP1;P1;durP2;ratioP2;P2;SDS_P1;SDS_P2;PMS_P1;PMS_P2;Temp;Humidity;BMP_temperature;BMP_pressure;BME280_temperature;BME280_humidity;BME280_pressure;Samples;Min_cycle;Max_cycle;Signal;HPM_P1;HPM_P2
2022/07/29 00:00:40;;;;;;;8.24;5.25;;;;;;;23.48;61.38;100901.37;459137;115;922455;-82
2022/07/29 00:01:43;;;;;;;7.66;5.94;;;;;;;23.47;61.40;100901.66;459070;115;922586;-81
2022/07/29 00:02:46;;;;;;;7.08;5.76;;;;;;;23.46;61.54;100903.61;459020;115;922460;-81
2022/07/29 00:03:50;;;;;;;7.73;5.41;;;;;;;23.45;61.55;100899.13;459073;115;922398;-82
2022/07/29 00:04:53;;;;;;;9.38;5.08;;;;;;;23.44;61.56;100904.98;458874;115;923053;-84
2022/07/29 00:05:56;;;;;;;8.34;6.05;;;;;;;23.41;61.45;100903.62;458506;115;922632;-84
2022/07/29 00:06:59;;;;;;;5.43;4.94;;;;;;;23.37;61.51;100899.78;455903;115;922583;-84
2022/07/29 00:08:02;;;;;;;8.24;5.18;;;;;;;23.36;61.59;100908.41;450622;117;922931;-83
2022/07/29 00:09:05;;;;;;;10.74;5.22;;;;;;;23.33;61.56;100906.19;450579;115;922610;-84
2022/07/29 00:10:09;;;;;;;5.04;4.37;;;;;;;23.29;61.62;100897.61;450558;117;922983;-82
2022/07/29 00:11:12;;;;;;;7.12;5.36;;;;;;;23.27;61.66;100902.63;450619;117;922562;-84
2022/07/29 00:12:15;;;;;;;6.11;4.94;;;;;;;23.25;61.96;100897.38;450605;117;922946;-84
2022/07/29 00:13:20;;;;;;;7.44;4.78;;;;;;;23.24;62.04;100900.44;449883;117;922636;-84
2022/07/29 00:14:25;;;;;;;5.53;5.04;;;;;;;23.24;62.14;100894.87;448898;117;923353;-84
2022/07/29 00:15:28;;;;;;;5.17;4.34;;;;;;;23.25;62.21;100902.11;454791;116;922558;-84
2022/07/29 00:16:31;;;;;;;5.35;4.79;;;;;;;23.26;62.31;100898.20;455215;116;922551;-83
2022/07/29 00:17:34;;;;;;;7.57;5.33;;;;;;;23.27;62.30;100905.41;455196;116;922533;-81
2022/07/29 00:18:39;;;;;;;5.96;5.04;;;;;;;23.27;62.30;100906.24;455142;116;922559;-81
2022/07/29 00:19:42;;;;;;;5.52;4.78;;;;;;;23.28;62.37;100901.51;455001;116;922963;-83
2022/07/29 00:20:47;;;;;;;6.02;5.12;;;;;;;23.29;62.41;100897.61;454990;116;922686;-83
2022/07/29 00:21:50;;;;;;;5.07;4.69;;;;;;;23.29;62.38;100904.01;455148;116;922608;-82
2022/07/29 00:22:53;;;;;;;7.24;4.64;;;;;;;23.29;62.36;100906.80;455172;116;922548;-82
2022/07/29 00:23:56;;;;;;;7.31;4.70;;;;;;;23.29;62.39;100903.17;448943;116;922718;-84
2022/07/29 00:24:59;;;;;;;7.22;5.08;;;;;;;23.28;62.35;100896.78;445843;119;923185;-83
2022/07/29 00:26:02;;;;;;;5.41;4.99;;;;;;;23.27;62.40;100894.28;445852;119;922637;-84
2022/07/29 00:27:05;;;;;;;5.41;4.96;;;;;;;23.28;62.38;100901.51;445919;119;922671;-84
2022/07/29 00:28:08;;;;;;;5.64;5.18;;;;;;;23.27;62.33;100905.41;445917;119;922941;-84
2022/07/29 00:29:12;;;;;;;7.64;5.18;;;;;;;23.26;62.37;100900.99;445901;119;922564;-84
2022/07/29 00:30:17;;;;;;;5.48;4.54;;;;;;;23.23;62.32;100899.61;448849;116;922653;-85
2022/07/29 00:31:21;;;;;;;5.66;5.14;;;;;;;23.21;62.29;100901.03;456049;116;923187;-84
2022/07/29 00:32:24;;;;;;;6.59;4.74;;;;;;;23.19;62.33;100897.70;456072;116;922617;-82
2022/07/29 00:33:28;;;;;;;5.29;4.79;;;;;;;23.18;62.47;100905.22;456037;116;923059;-82
2022/07/29 00:35:52;;;;;;;6.58;4.39;;;;;;;23.20;62.64;100904.94;455882;116;922970;-82
2022/07/29 00:36:57;;;;;;;5.62;4.62;;;;;;;23.20;62.61;100904.94;455875;116;923031;-84
2022/07/29 00:38:00;;;;;;;5.24;4.71;;;;;;;23.16;62.48;100901.05;456093;116;922587;-85
2022/07/29 00:39:04;;;;;;;6.55;5.08;;;;;;;23.14;62.54;100904.14;456010;116;922589;-83
2022/07/29 00:40:08;;;;;;;4.99;4.59;;;;;;;23.14;62.56;100906.09;456082;116;922936;-84
2022/07/29 00:41:12;;;;;;;5.32;4.83;;;;;;;23.12;62.60;100903.59;455940;116;922581;-83
2022/07/29 00:42:16;;;;;;;4.72;4.28;;;;;;;23.12;62.57;100899.98;455969;116;922783;-83
2022/07/29 00:43:19;;;;;;;7.09;5.78;;;;;;;23.09;62.55;100908.92;455975;116;923525;-84
2022/07/29 00:44:22;;;;;;;6.31;5.05;;;;;;;23.08;62.56;100907.25;456080;116;922608;-84
2022/07/29 00:45:25;;;;;;;6.15;5.33;;;;;;;23.07;62.55;100905.58;456087;116;922554;-84
2022/07/29 00:46:28;;;;;;;5.58;4.83;;;;;;;23.02;62.54;100906.45;455969;116;922616;-85
2022/07/29 00:47:31;;;;;;;6.33;4.83;;;;;;;23.00;62.52;100911.47;456057;116;922619;-82
2022/07/29 00:48:34;;;;;;;5.36;4.88;;;;;;;22.97;62.63;100900.10;456076;116;922975;-83
2022/07/29 00:49:39;;;;;;;7.46;5.24;;;;;;;22.96;62.73;100904.00;456052;116;922703;-81
2022/07/29 00:50:43;;;;;;;7.56;5.12;;;;;;;22.95;62.75;100910.67;455854;116;923145;-84
2022/07/29 00:51:46;;;;;;;5.95;4.56;;;;;;;22.94;62.81;100909.01;456098;116;922613;-83
2022/07/29 00:52:51;;;;;;;4.85;4.48;;;;;;;22.93;62.83;100910.98;456015;116;922562;-82
2022/07/29 00:53:54;;;;;;;4.87;4.32;;;;;;;22.92;63.04;100908.48;455890;116;922485;-84
2022/07/29 00:54:58;;;;;;;6.07;4.62;;;;;;;22.93;63.08;100910.16;456087;116;922651;-82
2022/07/29 00:56:01;;;;;;;5.66;4.92;;;;;;;22.93;63.16;100910.16;456021;116;922874;-82
2022/07/29 00:57:06;;;;;;;6.91;4.85;;;;;;;22.93;63.21;100910.16;456059;116;922723;-83
2022/07/29 00:58:11;;;;;;;5.33;4.86;;;;;;;22.94;63.29;100909.01;455852;116;923624;-83
2022/07/29 00:59:15;;;;;;;5.55;4.84;;;;;;;22.95;63.33;100897.60;455811;116;922992;-82
2022/07/29 01:00:22;;;;;;;5.49;5.04;;;;;;;22.96;63.32;100909.56;455873;116;922830;-83
2022/07/29 01:01:25;;;;;;;5.12;4.43;;;;;;;22.96;63.25;100910.39;455790;116;922716;-84
2022/07/29 01:02:29;;;;;;;5.59;4.82;;;;;;;22.98;63.32;100907.33;455995;116;922612;-85
2022/07/29 01:03:32;;;;;;;5.12;4.72;;;;;;;22.97;63.35;100912.06;455989;116;930333;-83
2022/07/29 01:04:35;;;;;;;5.41;4.76;;;;;;;22.98;63.36;100913.73;456014;116;923137;-82
2022/07/29 01:05:40;;;;;;;5.47;5.04;;;;;;;22.99;63.30;100915.36;456020;116;922546;-83
2022/07/29 01:06:46;;;;;;;4.99;4.62;;;;;;;23.00;63.32;100919.81;453557;116;922568;-83
2022/07/29 01:07:52;;;;;;;7.08;4.78;;;;;;;23.00;63.21;100905.91;448210;118;922622;-83
2022/07/29 01:08:56;;;;;;;7.26;4.99;;;;;;;22.98;63.14;100897.04;447990;118;931017;-82
2022/07/29 01:09:59;;;;;;;6.19;4.57;;;;;;;22.96;63.06;100913.17;448163;118;923177;-82
2022/07/29 01:11:03;;;;;;;6.89;4.97;;;;;;;22.94;62.99;100911.79;448149;118;930502;-82
2022/07/29 01:12:07;;;;;;;5.48;4.96;;;;;;;22.91;63.14;100913.21;448220;118;930443;-84
2022/07/29 01:13:12;;;;;;;5.22;4.74;;;;;;;22.91;63.31;100912.38;448124;118;922649;-84
2022/07/29 01:14:15;;;;;;;6.36;4.75;;;;;;;22.88;63.24;100917.38;448087;118;930539;-84
2022/07/29 01:15:20;;;;;;;4.98;4.35;;;;;;;22.86;63.21;100916.86;454208;116;922600;-85
2022/07/29 01:16:27;;;;;;;7.32;4.59;;;;;;;22.86;63.42;100911.30;455795;116;930490;-86
2022/07/29 01:17:50;;;;;;;6.70;4.92;;;;;;;22.86;63.49;100914.08;454892;116;930560;-83
2022/07/29 01:18:58;;;;;;;5.49;4.40;;;;;;;22.88;63.57;100908.21;455759;116;922668;-83
2022/07/29 01:20:08;;;;;;;5.76;4.92;;;;;;;22.91;63.65;100912.38;450969;116;922590;-82
2022/07/29 01:21:29;;;;;;;4.76;4.41;;;;;;;22.92;63.69;100917.66;445176;119;922675;-84
2022/07/29 01:22:49;;;;;;;6.83;5.01;;;;;;;22.93;63.75;100904.59;445149;119;922580;-84
2022/07/29 01:24:29;;;;;;;4.44;4.09;;;;;;;22.92;63.56;100902.92;446095;119;922629;-84
2022/07/29 01:26:06;;;;;;;6.24;5.03;;;;;;;22.88;63.53;100905.43;446433;119;922687;-84
2022/07/29 01:27:22;;;;;;;5.72;4.49;;;;;;;22.84;63.68;100907.13;446323;116;922596;-83
2022/07/29 01:29:00;;;;;;;6.02;5.26;;;;;;;22.79;63.70;100902.44;446909;118;922529;-84
2022/07/29 01:30:06;;;;;;;5.49;4.75;;;;;;;22.76;63.83;100910.54;448614;116;922617;-83
2022/07/29 01:31:13;;;;;;;7.38;5.16;;;;;;;22.74;64.12;100910.82;454615;116;922618;-84
2022/07/29 01:32:24;;;;;;;5.10;4.74;;;;;;;22.74;64.24;100912.77;453181;116;922814;-84
2022/07/29 01:33:50;;;;;;;5.98;5.43;;;;;;;22.72;64.18;100912.21;454447;116;922559;-84
2022/07/29 01:35:18;;;;;;;7.47;4.78;;;;;;;22.71;64.21;100914.19;446905;118;922606;-84
2022/07/29 01:36:34;;;;;;;5.36;4.44;;;;;;;22.71;64.33;100910.55;446929;118;923191;-84
2022/07/29 01:38:00;;;;;;;6.24;4.51;;;;;;;22.70;64.52;100917.22;446917;118;923135;-83
2022/07/29 01:39:07;;;;;;;6.14;4.73;;;;;;;22.71;64.60;100918.88;446921;118;922635;-84
2022/07/29 01:40:13;;;;;;;5.04;4.57;;;;;;;22.70;64.73;100917.22;446971;118;922571;-84
2022/07/29 01:41:19;;;;;;;5.82;4.77;;;;;;;22.70;64.67;100912.48;446345;118;922608;-85
2022/07/29 01:42:29;;;;;;;5.00;4.58;;;;;;;22.70;64.72;100912.48;446984;118;922675;-85
2022/07/29 01:43:38;;;;;;;5.24;4.32;;;;;;;22.73;64.72;100913.88;446982;118;922536;-84
2022/07/29 01:44:48;;;;;;;4.80;4.42;;;;;;;22.73;64.63;100919.44;446930;118;922695;-85
2022/07/29 01:46:00;;;;;;;4.63;4.28;;;;;;;22.72;64.61;100921.38;446990;118;922571;-85
2022/07/29 01:47:07;;;;;;;4.82;4.16;;;;;;;22.73;64.63;100922.22;446965;118;922692;-84
2022/07/29 01:48:28;;;;;;;4.58;4.18;;;;;;;22.73;64.66;100917.49;446586;118;922564;-83
2022/07/29 01:49:35;;;;;;;5.23;4.53;;;;;;;22.75;64.66;100926.39;446694;118;922658;-85
2022/07/29 01:50:44;;;;;;;5.09;4.69;;;;;;;22.76;64.59;100918.87;446937;118;922583;-83
2022/07/29 01:52:06;;;;;;;6.41;4.68;;;;;;;22.75;64.58;100915.27;446605;118;922678;-84
2022/07/29 01:53:29;;;;;;;6.08;4.59;;;;;;;22.85;64.50;100920.76;482265;110;947180;-82
2022/07/29 01:54:55;;;;;;;8.58;5.12;;;;;;;22.74;64.40;100921.94;469330;112;923050;-83
2022/07/29 01:56:01;;;;;;;5.06;4.66;;;;;;;22.72;64.31;100928.89;465302;114;923115;-81
2022/07/29 01:57:08;;;;;;;4.88;4.31;;;;;;;22.69;64.40;100921.11;465284;114;923101;-83
2022/07/29 01:58:14;;;;;;;5.70;4.73;;;;;;;22.67;64.47;100917.77;465325;114;922830;-83
2022/07/29 01:59:18;;;;;;;4.25;3.92;;;;;;;22.66;64.58;100919.72;465316;113;923057;-83
2022/07/29 02:00:23;;;;;;;5.08;4.58;;;;;;;22.68;64.66;100917.49;465361;114;923046;-83
2022/07/29 02:01:27;;;;;;;4.10;3.76;;;;;;;22.69;64.72;100919.16;465360;114;922535;-82
2022/07/29 02:02:32;;;;;;;4.28;3.87;;;;;;;22.71;64.71;100913.33;465406;114;922537;-83
2022/07/29 02:03:37;;;;;;;4.65;4.21;;;;;;;22.72;64.68;100924.16;465354;114;922594;-82
2022/07/29 02:04:42;;;;;;;6.44;4.29;;;;;;;22.73;64.68;100919.44;465308;113;922884;-83
2022/07/29 02:05:48;;;;;;;4.60;4.06;;;;;;;22.73;64.58;100919.44;465375;114;922580;-84
2022/07/29 02:06:54;;;;;;;5.93;4.86;;;;;;;22.74;64.50;100919.16;458563;114;922910;-83
2022/07/29 02:07:59;;;;;;;4.93;4.53;;;;;;;22.73;64.52;100916.66;453723;114;922886;-84
2022/07/29 02:09:02;;;;;;;4.59;4.09;;;;;;;22.73;64.53;100919.44;462112;114;922460;-84
2022/07/29 02:10:10;;;;;;;5.32;4.74;;;;;;;22.74;64.61;100909.98;462117;114;922618;-83
2022/07/29 02:11:13;;;;;;;4.01;3.66;;;;;;;22.76;64.59;100921.66;462083;114;923161;-84
2022/07/29 02:12:18;;;;;;;7.66;3.95;;;;;;;22.77;64.58;100915.80;462150;114;922475;-82
2022/07/29 02:13:24;;;;;;;4.50;3.68;;;;;;;22.79;64.57;100921.08;462008;114;930580;-84
2022/07/29 02:14:30;;;;;;;4.04;3.61;;;;;;;22.79;64.71;100913.56;461967;114;931024;-84
2022/07/29 02:15:35;;;;;;;2.97;2.74;;;;;;;22.80;64.59;100914.40;456890;116;922940;-84
2022/07/29 02:16:40;;;;;;;3.03;2.56;;;;;;;22.80;64.37;100918.02;464380;114;922674;-85
2022/07/29 02:17:53;;;;;;;3.91;3.46;;;;;;;22.80;64.24;100920.80;465308;114;922814;-83
2022/07/29 02:18:58;;;;;;;3.03;2.78;;;;;;;22.80;64.18;100920.80;465368;114;922853;-83
2022/07/29 02:20:04;;;;;;;4.49;2.84;;;;;;;22.80;63.98;100917.18;465352;113;922913;-84
2022/07/29 02:21:07;;;;;;;7.70;3.57;;;;;;;22.79;63.92;100923.85;465362;114;922887;-83
2022/07/29 02:22:14;;;;;;;12.28;3.07;;;;;;;22.76;63.87;100919.72;464463;114;923021;-83
2022/07/29 02:23:22;;;;;;;2.91;2.44;;;;;;;22.75;63.85;100920.83;465341;114;922942;-82
2022/07/29 02:24:26;;;;;;;5.97;2.86;;;;;;;22.74;63.88;100921.94;465315;114;922587;-82
2022/07/29 02:25:31;;;;;;;6.49;2.66;;;;;;;22.74;63.90;100921.94;465449;114;923363;-83
2022/07/29 02:26:39;;;;;;;4.11;2.93;;;;;;;22.75;63.86;100922.77;464722;114;922977;-84
2022/07/29 02:27:43;;;;;;;4.42;3.44;;;;;;;22.72;63.81;100913.05;465316;114;922649;-81
2022/07/29 02:28:47;;;;;;;4.02;2.88;;;;;;;22.74;63.86;100921.11;465451;114;922841;-84
2022/07/29 02:29:53;;;;;;;2.97;2.71;;;;;;;22.74;63.85;100921.94;463391;113;922760;-84
2022/07/29 02:30:59;;;;;;;3.40;2.95;;;;;;;22.73;63.88;100920.27;464573;114;922521;-83
2022/07/29 02:32:04;;;;;;;2.86;2.51;;;;;;;22.75;63.98;100922.77;465405;114;922570;-81
2022/07/29 02:33:10;;;;;;;3.77;2.47;;;;;;;22.75;63.98;100923.61;465338;114;922586;-82
2022/07/29 02:34:15;;;;;;;3.53;2.46;;;;;;;22.77;64.04;100923.33;465368;113;922596;-84
2022/07/29 02:35:22;;;;;;;3.74;3.15;;;;;;;22.78;64.02;100920.23;465082;114;922529;-82
2022/07/29 02:36:27;;;;;;;3.23;2.39;;;;;;;22.82;63.90;100921.31;465464;114;922624;-83
2022/07/29 02:37:32;;;;;;;5.68;2.27;;;;;;;22.83;63.85;100922.98;465438;114;922592;-83
2022/07/29 02:38:51;;;;;;;2.89;2.62;;;;;;;22.85;63.84;100917.98;465346;114;930536;-84
2022/07/29 02:39:56;;;;;;;2.91;2.60;;;;;;;22.88;63.84;100929.66;465363;113;922462;-82
2022/07/29 02:41:02;;;;;;;2.62;2.39;;;;;;;22.91;63.94;100927.12;465382;114;922470;-84
2022/07/29 02:42:08;;;;;;;6.09;2.58;;;;;;;22.94;64.01;100925.69;465284;114;930325;-84
2022/07/29 02:43:12;;;;;;;2.97;2.28;;;;;;;22.95;64.04;100924.58;465350;114;922842;-83
2022/07/29 02:44:18;;;;;;;6.23;3.08;;;;;;;23.00;63.96;100930.10;465483;113;922649;-83
2022/07/29 02:45:22;;;;;;;4.23;2.13;;;;;;;23.00;63.88;100921.76;465307;114;923110;-82
2022/07/29 02:46:32;;;;;;;5.14;2.41;;;;;;;23.01;63.78;100934.55;465223;114;923550;-83
2022/07/29 02:47:44;;;;;;;2.56;2.36;;;;;;;23.01;63.58;100926.20;465282;114;922523;-81
2022/07/29 02:48:50;;;;;;;2.57;2.07;;;;;;;23.02;63.36;100927.88;465334;114;922674;-84
2022/07/29 02:50:08;;;;;;;2.77;2.50;;;;;;;23.01;63.37;100934.55;464802;113;922534;-82
2022/07/29 02:51:23;;;;;;;1.92;1.77;;;;;;;23.01;63.48;100934.55;465120;114;923360;-77
2022/07/29 02:52:33;;;;;;;2.02;1.83;;;;;;;23.01;63.29;100929.82;453026;116;922682;-81
2022/07/29 02:53:38;;;;;;;2.51;2.32;;;;;;;23.01;63.18;100934.55;449189;116;922668;-79
2022/07/29 02:54:48;;;;;;;3.88;1.47;;;;;;;23.01;63.13;100932.60;447415;118;923129;-76
2022/07/29 02:56:01;;;;;;;3.08;2.09;;;;;;;23.02;63.04;100934.27;448667;116;922606;-81
2022/07/29 02:57:21;;;;;;;2.29;2.10;;;;;;;23.15;62.94;100927.23;476655;110;947794;-84
2022/07/29 02:58:36;;;;;;;2.67;1.98;;;;;;;23.05;62.89;100936.46;465386;114;922601;-83
2022/07/29 02:59:43;;;;;;;1.87;1.77;;;;;;;23.06;62.80;100929.78;460965;113;922967;-85
2022/07/29 03:00:48;;;;;;;2.73;2.19;;;;;;;23.08;62.86;100921.99;457275;116;922815;-84
2022/07/29 03:01:54;;;;;;;2.51;1.77;;;;;;;23.09;62.85;100934.78;457291;116;923009;-85
2022/07/29 03:03:00;;;;;;;2.56;1.93;;;;;;;23.11;62.73;100929.74;457348;116;922715;-84
2022/07/29 03:04:05;;;;;;;4.03;1.63;;;;;;;23.12;62.55;100931.41;457270;115;922567;-82
2022/07/29 03:05:11;;;;;;;3.35;1.84;;;;;;;23.14;62.45;100928.34;457439;115;922903;-80
2022/07/29 03:06:17;;;;;;;1.77;1.67;;;;;;;23.13;62.27;100935.86;457295;116;922537;-84
2022/07/29 03:07:23;;;;;;;2.83;1.80;;;;;;;23.14;62.11;100939.47;453624;116;923112;-83
2022/07/29 03:08:27;;;;;;;4.18;2.09;;;;;;;23.13;62.09;100938.64;455675;116;923082;-81
2022/07/29 03:09:31;;;;;;;2.06;1.86;;;;;;;23.13;61.91;100933.08;455655;114;922940;-81
2022/07/29 03:10:36;;;;;;;2.59;1.51;;;;;;;23.13;61.90;100940.59;455696;116;923009;-84
2022/07/29 03:11:40;;;;;;;2.33;1.82;;;;;;;23.13;61.87;100940.59;455633;116;922603;-84
2022/07/29 03:12:46;;;;;;;2.05;1.58;;;;;;;23.12;61.94;100945.31;455678;116;922610;-83
2022/07/29 03:13:50;;;;;;;1.84;1.69;;;;;;;23.13;62.07;100941.42;457451;116;922901;-81
2022/07/29 03:14:54;;;;;;;2.46;1.71;;;;;;;23.15;61.97;100955.05;457395;114;922506;-83
2022/07/29 03:15:58;;;;;;;4.77;1.95;;;;;;;23.15;61.78;100957.83;457335;116;923345;-83
2022/07/29 03:17:02;;;;;;;1.99;1.82;;;;;;;23.13;61.64;100958.11;457376;116;922958;-84
2022/07/29 03:18:06;;;;;;;2.33;1.71;;;;;;;23.12;61.57;100956.45;457388;116;922597;-82
2022/07/29 03:19:10;;;;;;;1.98;1.41;;;;;;;23.11;61.53;100959.50;457294;116;922863;-82
2022/07/29 03:20:14;;;;;;;2.64;1.91;;;;;;;23.09;61.48;100959.82;457333;116;922579;-84
2022/07/29 03:21:17;;;;;;;1.96;1.67;;;;;;;23.09;61.40;100958.98;457402;116;922612;-82
2022/07/29 03:22:20;;;;;;;2.68;1.91;;;;;;;23.07;61.35;100961.21;457462;116;922566;-83
2022/07/29 03:23:25;;;;;;;3.71;1.81;;;;;;;23.05;61.47;100957.88;457315;116;922560;-83
2022/07/29 03:24:34;;;;;;;2.46;1.53;;;;;;;23.05;61.36;100960.66;457134;116;930315;-82
2022/07/29 03:25:37;;;;;;;2.67;1.62;;;;;;;23.03;61.34;100960.97;457245;116;923140;-83
2022/07/29 03:26:40;;;;;;;3.15;1.61;;;;;;;23.02;61.44;100964.86;457331;116;922686;-82
2022/07/29 03:27:44;;;;;;;2.09;1.38;;;;;;;23.05;61.54;100952.31;457484;116;922564;-82
2022/07/29 03:28:47;;;;;;;2.66;1.61;;;;;;;23.06;61.51;100959.55;457403;116;922554;-81
2022/07/29 03:29:50;;;;;;;2.92;1.50;;;;;;;23.07;61.37;100961.21;455558;116;923163;-83
2022/07/29 03:30:54;;;;;;;3.59;1.87;;;;;;;23.07;61.29;100962.05;456708;116;922631;-77
2022/07/29 03:31:57;;;;;;;1.59;1.49;;;;;;;23.07;61.24;100961.21;457433;115;922803;-82
2022/07/29 03:33:00;;;;;;;1.73;1.58;;;;;;;23.08;61.25;100960.09;457551;116;922577;-82
2022/07/29 03:34:04;;;;;;;2.76;1.76;;;;;;;23.08;61.34;100958.16;461988;113;922976;-81
2022/07/29 03:35:08;;;;;;;1.98;1.48;;;;;;;23.10;61.48;100964.23;466678;113;923099;-80
2022/07/29 03:36:13;;;;;;;1.86;1.76;;;;;;;23.12;61.29;100961.17;466463;113;922922;-80
2022/07/29 03:37:16;;;;;;;3.42;1.50;;;;;;;23.13;61.23;100962.84;466552;113;922473;-82
2022/07/29 03:38:21;;;;;;;3.24;1.47;;;;;;;23.13;61.04;100972.02;466681;113;922800;-82
2022/07/29 03:39:27;;;;;;;2.53;1.62;;;;;;;23.13;60.93;100966.46;466384;113;922976;-81
2022/07/29 03:40:36;;;;;;;1.53;1.43;;;;;;;23.14;60.82;100964.52;466492;113;923088;-80
2022/07/29 03:41:42;;;;;;;2.83;1.49;;;;;;;23.15;60.63;100971.74;460554;113;922805;-80
2022/07/29 03:42:46;;;;;;;2.25;1.67;;;;;;;23.12;60.52;100970.36;466401;113;922803;-83
2022/07/29 03:43:51;;;;;;;4.17;1.61;;;;;;;23.11;60.54;100974.25;466440;113;922555;-79
2022/07/29 03:44:57;;;;;;;2.44;1.59;;;;;;;23.12;60.61;100977.86;466428;113;922498;-83
2022/07/29 03:46:02;;;;;;;3.46;1.34;;;;;;;23.12;60.52;100978.70;466400;113;922788;-83
2022/07/29 03:47:08;;;;;;;1.83;1.36;;;;;;;23.14;60.46;100981.20;466402;113;922528;-80
2022/07/29 03:48:14;;;;;;;2.29;1.34;;;;;;;23.14;60.36;100973.69;466421;113;922514;-81
2022/07/29 03:49:20;;;;;;;7.63;1.70;;;;;;;23.16;60.36;100978.94;466411;113;922864;-80
2022/07/29 03:50:25;;;;;;;4.18;1.41;;;;;;;23.16;60.10;100978.94;466445;113;922513;-82
2022/07/29 03:51:28;;;;;;;2.32;1.46;;;;;;;23.15;60.08;100971.74;466566;113;923267;-82
2022/07/29 03:52:34;;;;;;;1.42;1.23;;;;;;;23.16;60.12;100971.43;466017;113;922593;-83
2022/07/29 03:53:37;;;;;;;1.42;1.32;;;;;;;23.18;60.08;100974.77;466572;113;922929;-83
2022/07/29 03:54:40;;;;;;;1.45;1.35;;;;;;;23.20;60.06;100974.48;466583;113;922622;-82
2022/07/29 03:55:46;;;;;;;2.56;1.19;;;;;;;23.21;59.86;100973.38;466635;113;922628;-82
2022/07/29 03:56:52;;;;;;;1.96;1.64;;;;;;;23.21;59.75;100974.17;465719;113;922655;-76
2022/07/29 03:57:57;;;;;;;1.47;1.37;;;;;;;23.20;59.80;100966.97;463652;114;922550;-81
2022/07/29 03:59:02;;;;;;;2.15;1.41;;;;;;;23.22;59.87;100975.84;463670;114;922604;-78
2022/07/29 04:00:07;;;;;;;1.78;1.43;;;;;;;23.24;59.82;100978.34;463572;114;930262;-82
2022/07/29 04:01:11;;;;;;;2.28;1.23;;;;;;;23.24;59.72;100981.95;463710;114;922600;-81
2022/07/29 04:02:15;;;;;;;2.05;1.22;;;;;;;23.26;59.74;100973.33;463774;114;922539;-82
2022/07/29 04:03:20;;;;;;;1.36;1.26;;;;;;;23.28;59.56;100976.64;463048;114;922541;-78
2022/07/29 04:04:24;;;;;;;1.79;1.52;;;;;;;23.30;59.51;100982.75;463720;114;922657;-78
2022/07/29 04:05:29;;;;;;;3.59;1.68;;;;;;;23.30;59.46;100971.63;463574;114;930429;-81
2022/07/29 04:06:40;;;;;;;2.76;1.45;;;;;;;23.33;59.44;100970.19;463853;114;922578;-81
2022/07/29 04:07:45;;;;;;;3.18;1.52;;;;;;;23.32;59.32;100977.73;447867;117;922616;-80
2022/07/29 04:08:48;;;;;;;4.23;1.89;;;;;;;23.34;58.79;100980.21;451319;116;922577;-76
2022/07/29 04:09:51;;;;;;;3.01;1.60;;;;;;;23.34;58.79;100980.21;455536;114;930465;-79
2022/07/29 04:10:54;;;;;;;4.26;1.85;;;;;;;23.33;59.14;100972.98;455533;116;923083;-85
2022/07/29 04:11:58;;;;;;;1.57;1.44;;;;;;;23.34;59.04;100977.42;455700;116;923061;-78
2022/07/29 04:13:02;;;;;;;1.79;1.22;;;;;;;23.34;59.10;100974.64;455110;116;922581;-79
2022/07/29 04:14:06;;;;;;;2.74;1.57;;;;;;;23.34;59.14;100975.48;455674;116;922533;-86
2022/07/29 04:15:10;;;;;;;3.00;1.48;;;;;;;23.36;59.16;100981.59;455366;116;922563;-82
2022/07/29 04:16:14;;;;;;;1.78;1.32;;;;;;;23.37;59.27;100977.70;455063;116;930232;-75
2022/07/29 04:17:17;;;;;;;2.24;1.46;;;;;;;23.38;59.15;100979.34;455269;116;922571;-80
2022/07/29 04:18:21;;;;;;;3.87;1.71;;;;;;;23.40;59.13;100982.67;451946;117;923579;-80
2022/07/29 04:19:24;;;;;;;6.64;1.57;;;;;;;23.41;59.08;100973.20;452120;116;923155;-81
2022/07/29 04:20:27;;;;;;;2.59;1.41;;;;;;;23.41;59.13;100975.98;455308;116;922959;-82
2022/07/29 04:21:31;;;;;;;1.71;1.32;;;;;;;23.42;59.06;100980.44;455204;116;922576;-82
2022/07/29 04:22:34;;;;;;;2.33;1.55;;;;;;;23.43;59.13;100972.92;455261;116;923216;-77
2022/07/29 04:23:37;;;;;;;1.87;1.37;;;;;;;23.45;59.08;100974.28;455280;116;922599;-79
2022/07/29 04:24:42;;;;;;;1.79;1.39;;;;;;;23.48;59.07;100978.48;452385;116;922628;-82
2022/07/29 04:25:47;;;;;;;2.01;1.46;;;;;;;23.50;59.06;100977.05;455099;116;922716;-81
2022/07/29 04:26:49;;;;;;;1.57;1.42;;;;;;;23.53;59.05;100978.44;455244;116;922624;-83
2022/07/29 04:28:02;;;;;;;2.49;1.34;;;;;;;23.56;58.96;100981.45;455238;116;922873;-81
2022/07/29 04:29:05;;;;;;;1.42;1.28;;;;;;;23.58;58.93;100979.22;455073;116;922637;-83
2022/07/29 04:30:09;;;;;;;1.66;1.44;;;;;;;23.61;58.87;100986.14;453250;116;922892;-82
2022/07/29 04:31:13;;;;;;;2.70;1.19;;;;;;;23.63;58.76;100984.74;439114;120;924148;-83
2022/07/29 04:32:16;;;;;;;1.31;1.21;;;;;;;23.65;58.69;100985.26;434150;122;923339;-81
2022/07/29 04:33:19;;;;;;;1.92;1.42;;;;;;;23.68;58.57;100983.86;434188;122;922628;-82
2022/07/29 04:34:22;;;;;;;1.91;1.52;;;;;;;23.70;58.46;100987.20;444436;118;922478;-83
2022/07/29 04:35:28;;;;;;;1.72;1.38;;;;;;;23.71;58.42;100988.03;446440;118;922657;-79
2022/07/29 04:36:32;;;;;;;4.46;1.49;;;;;;;23.73;58.28;100982.98;446626;118;923028;-82
2022/07/29 04:37:35;;;;;;;2.54;1.27;;;;;;;23.74;58.12;100987.42;446809;118;922569;-82
2022/07/29 04:38:38;;;;;;;2.70;1.28;;;;;;;23.74;58.12;100993.00;446878;118;922876;-79
2022/07/29 04:39:41;;;;;;;1.62;1.27;;;;;;;23.74;58.01;100985.48;446828;118;922606;-85
2022/07/29 04:40:44;;;;;;;1.72;1.24;;;;;;;23.74;57.87;100984.64;446889;118;923054;-78
2022/07/29 04:41:50;;;;;;;2.09;1.19;;;;;;;23.73;57.77;100983.81;446677;118;922573;-76
2022/07/29 04:42:53;;;;;;;2.02;1.25;;;;;;;23.72;57.88;100982.14;446802;118;922613;-79
2022/07/29 04:43:56;;;;;;;1.39;1.29;;;;;;;23.73;58.02;100977.41;446788;118;922589;-79
2022/07/29 04:44:59;;;;;;;2.21;1.29;;;;;;;23.74;57.91;100977.13;446753;118;930894;-83
2022/07/29 04:46:05;;;;;;;2.80;1.12;;;;;;;23.75;57.95;100981.58;446723;118;922528;-76
2022/07/29 04:47:09;;;;;;;1.76;1.51;;;;;;;23.75;57.92;100975.17;446649;118;922557;-81
2022/07/29 04:48:12;;;;;;;4.53;1.32;;;;;;;23.77;58.02;100978.47;446763;118;923150;-81
2022/07/29 04:49:15;;;;;;;2.13;1.41;;;;;;;23.78;57.72;100982.93;446728;118;930309;-82
2022/07/29 04:50:19;;;;;;;1.30;1.20;;;;;;;23.79;57.74;100981.81;446807;118;922612;-76
2022/07/29 04:51:22;;;;;;;2.06;1.45;;;;;;;23.80;57.72;100975.13;446849;118;922668;-78
2022/07/29 04:52:25;;;;;;;1.64;1.17;;;;;;;23.80;57.76;100977.91;446862;118;922782;-84
2022/07/29 04:53:29;;;;;;;4.42;1.41;;;;;;;23.80;57.59;100973.17;446821;118;922687;-82
2022/07/29 04:54:32;;;;;;;3.95;1.56;;;;;;;23.80;57.64;100973.17;446797;118;922616;-80
2022/07/29 04:55:36;;;;;;;1.62;1.51;;;;;;;23.81;57.67;100974.84;446815;118;923002;-78
2022/07/29 04:56:41;;;;;;;3.19;1.28;;;;;;;23.83;57.68;100975.35;446649;118;923214;-76
2022/07/29 04:57:44;;;;;;;2.62;1.39;;;;;;;23.85;57.65;100969.50;446905;116;923065;-81
2022/07/29 04:58:47;;;;;;;2.09;1.30;;;;;;;23.87;57.65;100973.64;446948;118;922595;-81
2022/07/29 04:59:50;;;;;;;2.31;1.27;;;;;;;23.88;57.46;100975.30;446929;118;922583;-78
2022/07/29 05:00:53;;;;;;;1.82;1.51;;;;;;;23.90;57.38;100975.84;446946;118;922609;-82
2022/07/29 05:01:56;;;;;;;2.72;1.74;;;;;;;23.92;57.41;100979.19;446939;118;923546;-78
2022/07/29 05:03:00;;;;;;;1.87;1.47;;;;;;;23.93;57.42;100974.41;446922;118;922902;-79
2022/07/29 05:04:03;;;;;;;1.94;1.40;;;;;;;23.94;57.45;100976.08;446970;118;922628;-83
2022/07/29 05:05:07;;;;;;;1.57;1.31;;;;;;;23.96;57.47;100980.25;439315;118;922585;-80